Time,TemperatureF,DewpointF,PressureIn,WindDirection,WindDirectionDegrees,WindSpeedMPH,WindSpeedGustMPH,Humidity,HourlyPrecipIn,Conditions,Clouds,dailyrainin,SoftwareType,DateUTC
2013-08-25 00:12:00,79.0,73.0,29.82,West,261,2.0,6.0,82,0.00,,,0.03,,2013-08-25 07:12:00,
2013-08-25 00:22:00,79.0,73.0,29.82,WSW,258,0.0,0.0,82,0.00,,,0.03,,2013-08-25 07:22:00,
2013-08-25 00:52:00,78.0,72.0,29.82,SSW,204,1.0,1.0,83,0.00,,,0.03,,2013-08-25 07:52:00,
2013-08-25 01:12:00,78.0,72.0,29.83,SSW,192,0.0,0.0,83,0.00,,,0.03,,2013-08-25 08:12:00,
2013-08-25 01:21:00,78.0,72.0,29.83,South,178,0.0,1.0,83,0.00,,,0.03,,2013-08-25 08:21:00,
2013-08-25 01:52:00,79.0,73.0,29.83,East,100,0.0,1.0,83,0.00,,,0.03,,2013-08-25 08:52:00,
2013-08-25 02:11:00,79.0,73.0,29.84,East,84,0.0,1.0,82,0.00,,,0.03,,2013-08-25 09:11:00,
2013-08-25 02:22:00,79.0,73.0,29.84,East,88,2.0,3.0,82,0.00,,,0.03,,2013-08-25 09:22:00,
2013-08-25 02:55:00,79.0,73.0,29.84,ESE,102,0.0,5.0,81,0.00,,,0.03,,2013-08-25 09:55:00,
2013-08-25 03:22:00,79.0,73.0,29.84,NNE,22,0.0,1.0,82,0.00,,,0.03,,2013-08-25 10:22:00,
2013-08-25 03:53:00,79.0,72.0,29.84,ENE,64,1.0,2.0,79,0.00,,,0.03,,2013-08-25 10:53:00,
2013-08-25 04:11:00,79.0,72.0,29.84,ENE,67,1.0,2.0,78,0.00,,,0.03,,2013-08-25 11:11:00,
2013-08-25 04:22:00,79.0,72.0,29.84,NE,48,0.0,0.0,78,0.00,,,0.03,,2013-08-25 11:22:00,
2013-08-25 04:52:00,79.0,72.0,29.85,NE,46,0.0,1.0,79,0.00,,,0.03,,2013-08-25 11:52:00,
2013-08-25 05:12:00,79.0,72.0,29.85,NE,38,0.0,0.0,79,0.00,,,0.03,,2013-08-25 12:12:00,
2013-08-25 05:22:00,79.0,72.0,29.85,NE,50,0.0,1.0,79,0.00,,,0.03,,2013-08-25 12:22:00,
2013-08-25 05:52:00,79.0,72.0,29.86,NE,34,0.0,1.0,79,0.00,,,0.03,,2013-08-25 12:52:00,
2013-08-25 06:21:00,79.0,72.0,29.86,NE,36,0.0,0.0,78,0.00,,,0.03,,2013-08-25 13:21:00,
2013-08-25 06:52:00,79.0,72.0,29.87,East,82,0.0,1.0,80,0.00,,,0.03,,2013-08-25 13:52:00,
2013-08-25 07:23:00,80.0,73.0,29.88,ENE,75,0.0,0.0,80,0.00,,,0.03,,2013-08-25 14:23:00,
2013-08-25 07:52:00,81.0,74.0,29.88,NE,53,0.0,2.0,80,0.00,,,0.03,,2013-08-25 14:52:00,
2013-08-25 08:23:00,82.0,74.0,29.88,ENE,65,0.0,1.0,78,0.00,,,0.03,,2013-08-25 15:23:00,
2013-08-25 08:54:00,83.0,74.0,29.89,ENE,74,1.0,3.0,75,0.00,,,0.03,,2013-08-25 15:54:00,
2013-08-25 09:24:00,85.0,76.0,29.90,NE,56,2.0,3.0,74,0.00,,,0.03,,2013-08-25 16:24:00,
2013-08-25 09:53:00,85.0,74.0,29.90,ESE,109,5.0,5.0,69,0.00,,,0.03,,2013-08-25 16:53:00,
2013-08-25 10:22:00,86.0,72.0,29.91,ESE,110,4.0,7.0,64,0.00,,,0.03,,2013-08-25 17:22:00,
2013-08-25 10:53:00,87.0,72.0,29.91,SE,125,6.0,8.0,62,0.00,,,0.03,,2013-08-25 17:53:00,
2013-08-25 11:12:00,87.0,71.0,29.91,SE,138,7.0,12.0,59,0.00,,,0.03,,2013-08-25 18:12:00,
2013-08-25 11:21:00,87.0,72.0,29.91,SE,124,6.0,9.0,61,0.00,,,0.03,,2013-08-25 18:21:00,
2013-08-25 11:52:00,87.0,74.0,29.91,ENE,62,5.0,5.0,65,0.00,,,0.03,,2013-08-25 18:52:00,
2013-08-25 12:11:00,87.0,73.0,29.92,East,80,4.0,7.0,64,0.00,,,0.03,,2013-08-25 19:11:00,
2013-08-25 12:22:00,87.0,74.0,29.91,ENE,78,3.0,7.0,65,0.00,,,0.03,,2013-08-25 19:22:00,
2013-08-25 12:53:00,88.0,73.0,29.91,NE,56,4.0,5.0,62,0.00,,,0.03,,2013-08-25 19:53:00,
2013-08-25 13:12:00,87.0,74.0,29.91,East,101,14.0,19.0,65,0.00,,,0.03,,2013-08-25 20:12:00,
2013-08-25 13:23:00,82.0,74.0,29.91,NE,43,4.0,4.0,76,0.04,,,0.07,,2013-08-25 20:23:00,
2013-08-25 13:52:00,82.0,76.0,29.90,North,350,3.0,5.0,81,0.04,,,0.07,,2013-08-25 20:52:00,
2013-08-25 14:22:00,84.0,76.0,29.89,North,10,1.0,3.0,78,0.00,,,0.07,,2013-08-25 21:22:00,
2013-08-25 14:54:00,85.0,75.0,29.89,NW,319,2.0,3.0,73,0.00,,,0.07,,2013-08-25 21:54:00,
2013-08-25 15:23:00,86.0,75.0,29.88,North,6,0.0,1.0,70,0.00,,,0.07,,2013-08-25 22:23:00,
2013-08-25 15:53:00,86.0,74.0,29.88,ENE,74,0.0,1.0,68,0.00,,,0.07,,2013-08-25 22:53:00,
2013-08-25 16:12:00,86.0,71.0,29.87,SE,140,2.0,4.0,61,0.00,,,0.07,,2013-08-25 23:12:00,
2013-08-25 16:23:00,86.0,70.0,29.86,East,87,1.0,1.0,60,0.00,,,0.07,,2013-08-25 23:23:00,
2013-08-25 16:53:00,86.0,70.0,29.84,NE,53,2.0,3.0,59,0.00,,,0.07,,2013-08-25 23:53:00,
2013-08-25 17:11:00,86.0,72.0,29.85,ENE,63,3.0,5.0,63,0.00,,,0.07,,2013-08-26 00:11:00,
2013-08-25 17:22:00,86.0,72.0,29.84,ENE,73,4.0,5.0,63,0.00,,,0.07,,2013-08-26 00:22:00,
2013-08-25 17:41:00,86.0,72.0,29.84,East,88,2.0,5.0,63,0.00,,,0.07,,2013-08-26 00:41:00,
2013-08-25 17:52:00,86.0,71.0,29.84,East,81,3.0,3.0,62,0.00,,,0.07,,2013-08-26 00:52:00,
2013-08-25 18:11:00,85.0,71.0,29.85,East,88,3.0,3.0,63,0.00,,,0.07,,2013-08-26 01:11:00,
2013-08-25 18:22:00,85.0,71.0,29.85,ENE,68,3.0,5.0,63,0.00,,,0.07,,2013-08-26 01:22:00,
2013-08-25 18:42:00,85.0,73.0,29.85,NNE,28,1.0,2.0,67,0.00,,,0.07,,2013-08-26 01:42:00,
2013-08-25 18:52:00,84.0,72.0,29.85,NNE,17,1.0,2.0,68,0.00,,,0.07,,2013-08-26 01:52:00,
2013-08-25 19:21:00,84.0,72.0,29.86,NNW,341,1.0,2.0,68,0.00,,,0.06,,2013-08-26 02:21:00,
2013-08-25 19:42:00,83.0,73.0,29.87,North,3,0.0,1.0,71,0.00,,,0.05,,2013-08-26 02:42:00,
2013-08-25 19:52:00,83.0,73.0,29.87,North,359,0.0,0.0,72,0.01,,,0.06,,2013-08-26 02:52:00,
2013-08-25 20:11:00,82.0,73.0,29.87,NNE,27,0.0,0.0,75,0.01,,,0.06,,2013-08-26 03:11:00,
2013-08-25 20:21:00,82.0,74.0,29.87,NNE,25,0.0,0.0,76,0.01,,,0.06,,2013-08-26 03:21:00,
2013-08-25 20:55:00,81.0,73.0,29.88,NNE,18,0.0,1.0,77,0.00,,,0.05,,2013-08-26 03:55:00,
2013-08-25 21:14:00,81.0,72.0,29.89,NE,42,2.0,5.0,75,0.00,,,0.05,,2013-08-26 04:14:00,
2013-08-25 21:53:00,82.0,72.0,29.89,NE,46,1.0,3.0,73,0.00,,,0.05,,2013-08-26 04:53:00,
2013-08-25 22:13:00,82.0,72.0,29.90,East,89,5.0,7.0,72,0.00,,,0.05,,2013-08-26 05:13:00,
2013-08-25 22:22:00,82.0,72.0,29.90,East,80,3.0,7.0,72,0.00,,,0.05,,2013-08-26 05:22:00,
2013-08-25 22:43:00,81.0,72.0,29.89,NNE,18,4.0,8.0,73,0.00,,,0.05,,2013-08-26 05:43:00,
2013-08-25 22:52:00,81.0,71.0,29.89,NE,36,4.0,6.0,71,0.00,,,0.05,,2013-08-26 05:52:00,
2013-08-25 23:12:00,81.0,70.0,29.88,NE,47,2.0,4.0,70,0.00,,,0.05,,2013-08-26 06:12:00,
2013-08-25 23:21:00,80.0,70.0,29.88,NNE,25,2.0,5.0,71,0.00,,,0.05,,2013-08-26 06:21:00,
2013-08-25 23:42:00,80.0,69.0,29.88,NNE,33,3.0,4.0,70,0.00,,,0.05,,2013-08-26 06:42:00,
2013-08-25 23:52:00,80.0,70.0,29.88,NNE,17,5.0,9.0,71,0.00,,,0.05,,2013-08-26 06:52:00,